createdAt,value
2023-01-06T00:00:02.205Z,1004.39
2023-01-06T00:05:01.681Z,1004.37
2023-01-06T00:10:01.308Z,1004.37
2023-01-06T00:15:01.944Z,1004.41
2023-01-06T00:20:01.289Z,1004.43
2023-01-06T00:25:01.683Z,1004.44
2023-01-06T00:30:01.871Z,1004.41
2023-01-06T00:35:02.086Z,1004.41
2023-01-06T00:40:02.140Z,1004.43
2023-01-06T00:45:02.075Z,1004.39
2023-01-06T00:50:01.332Z,1004.4
2023-01-06T00:55:02.006Z,1004.41
2023-01-06T01:00:01.901Z,1004.36
2023-01-06T01:05:02.019Z,1004.29
2023-01-06T01:10:01.343Z,1004.27
2023-01-06T01:15:02.265Z,1004.3
2023-01-06T01:20:01.372Z,1004.3
2023-01-06T01:25:01.647Z,1004.27
2023-01-06T01:30:02.017Z,1004.24
2023-01-06T01:35:01.386Z,1004.2
2023-01-06T01:40:01.284Z,1004.2
2023-01-06T01:45:01.862Z,1004.21
2023-01-06T01:50:01.527Z,1004.14
2023-01-06T01:55:01.478Z,1004.12
2023-01-06T02:00:01.903Z,1004.15
2023-01-06T02:05:01.273Z,1004.15
2023-01-06T02:10:01.321Z,1004.21
2023-01-06T02:15:01.692Z,1004.17
2023-01-06T02:20:01.916Z,1004.2
2023-01-06T02:25:01.951Z,1004.16
2023-01-06T02:30:01.506Z,1004.09
2023-01-06T02:35:01.877Z,1004.05
2023-01-06T02:40:02.315Z,1003.95
2023-01-06T02:45:01.881Z,1003.81
2023-01-06T02:50:01.998Z,1003.73
2023-01-06T02:55:01.476Z,1003.77
2023-01-06T03:00:02.002Z,1003.72
2023-01-06T03:05:02.201Z,1003.68
2023-01-06T03:10:02.207Z,1003.67
2023-01-06T03:15:01.461Z,1003.67
2023-01-06T03:20:01.924Z,1003.63
2023-01-06T03:25:02.076Z,1003.63
2023-01-06T03:30:02.291Z,1003.67
2023-01-06T03:35:01.320Z,1003.58
2023-01-06T03:40:01.793Z,1003.52
2023-01-06T03:45:02.223Z,1003.59
2023-01-06T03:50:01.290Z,1003.51
2023-01-06T03:55:01.818Z,1003.48
2023-01-06T04:00:01.637Z,1003.48
2023-01-06T04:05:01.532Z,1003.47
2023-01-06T04:10:02.315Z,1003.55
2023-01-06T04:15:01.988Z,1003.47
2023-01-06T04:20:01.404Z,1003.45
2023-01-06T04:25:01.998Z,1003.32
2023-01-06T04:30:02.199Z,1003.26
2023-01-06T04:35:02.253Z,1003.42
2023-01-06T04:40:02.035Z,1003.42
2023-01-06T04:45:02.210Z,1003.34
2023-01-06T04:50:01.266Z,1003.3
2023-01-06T04:55:01.665Z,1003.21
2023-01-06T05:00:02.067Z,1003.15
2023-01-06T05:05:01.336Z,1002.98
2023-01-06T05:10:01.853Z,1003.01
2023-01-06T05:15:01.987Z,1002.93
2023-01-06T05:20:02.249Z,1002.93
2023-01-06T05:25:01.345Z,1002.91
2023-01-06T05:30:01.825Z,1002.89
2023-01-06T05:35:02.189Z,1002.91
2023-01-06T05:40:02.030Z,1002.98
2023-01-06T05:45:01.965Z,1003.03
2023-01-06T05:50:02.004Z,1002.92
2023-01-06T05:55:01.970Z,1003
2023-01-06T06:00:01.310Z,1002.89
2023-01-06T06:05:02.101Z,1002.93
2023-01-06T06:10:01.674Z,1002.99
2023-01-06T06:15:02.124Z,1003.07
2023-01-06T06:20:01.427Z,1003.1
2023-01-06T06:25:01.861Z,1003.04
2023-01-06T06:30:02.072Z,1002.95
2023-01-06T06:35:01.624Z,1002.99
2023-01-06T06:40:02.005Z,1003.07
2023-01-06T06:45:01.738Z,1003.13
2023-01-06T06:50:01.884Z,1003.13
2023-01-06T06:55:02.184Z,1003.1
2023-01-06T07:00:01.479Z,1003.12
2023-01-06T07:05:02.010Z,1003.1
2023-01-06T07:10:01.334Z,1003.04
2023-01-06T07:15:01.815Z,1003.09
2023-01-06T07:20:01.549Z,1003.05
2023-01-06T07:25:02.026Z,1003.05
2023-01-06T07:30:02.163Z,1003.07
2023-01-06T07:35:01.333Z,1003.09
2023-01-06T07:40:01.848Z,1003.02
2023-01-06T07:45:02.120Z,1002.89
2023-01-06T07:50:01.437Z,1002.8
2023-01-06T07:55:01.824Z,1002.82
2023-01-06T08:00:02.066Z,1002.86
2023-01-06T08:05:02.238Z,1002.81
2023-01-06T08:10:01.473Z,1002.78
2023-01-06T08:15:01.879Z,1002.76
2023-01-06T08:20:01.676Z,1002.78
2023-01-06T08:25:01.500Z,1002.69
2023-01-06T08:30:02.018Z,1002.85
2023-01-06T08:35:02.285Z,1002.94
2023-01-06T08:40:02.135Z,1002.91
2023-01-06T08:45:01.338Z,1002.94
2023-01-06T08:50:01.819Z,1003.03
2023-01-06T08:55:01.329Z,1003.09
2023-01-06T09:00:01.614Z,1003.06
2023-01-06T09:05:02.479Z,1003.17
2023-01-06T09:10:01.621Z,1003.2
2023-01-06T09:15:02.225Z,1003.25
2023-01-06T09:20:01.417Z,1003.3
2023-01-06T09:25:01.752Z,1003.36
2023-01-06T09:30:01.546Z,1003.54
2023-01-06T09:35:01.953Z,1003.55
2023-01-06T09:40:01.465Z,1003.61
2023-01-06T09:45:01.983Z,1003.63
2023-01-06T09:50:01.643Z,1003.63
2023-01-06T09:55:02.239Z,1003.57
2023-01-06T10:00:01.500Z,1003.62
2023-01-06T10:05:02.184Z,1003.6
2023-01-06T10:10:01.614Z,1003.57
2023-01-06T10:15:02.059Z,1003.56
2023-01-06T10:20:02.253Z,1003.54
2023-01-06T10:25:01.609Z,1003.52
2023-01-06T10:30:02.221Z,1003.44
2023-01-06T10:35:01.752Z,1003.47
2023-01-06T10:40:02.256Z,1003.53
2023-01-06T10:45:01.405Z,1003.52
2023-01-06T10:50:02.170Z,1003.61
2023-01-06T10:55:02.094Z,1003.63
2023-01-06T11:00:02.376Z,1003.51
2023-01-06T11:05:01.723Z,1003.49
2023-01-06T11:10:01.896Z,1003.52
2023-01-06T11:15:02.149Z,1003.53
2023-01-06T11:20:02.056Z,1003.49
2023-01-06T11:25:01.490Z,1003.47
2023-01-06T11:32:47.467Z,1003.49
2023-01-06T11:35:01.802Z,1003.49
2023-01-06T11:40:10.394Z,1003.53
2023-01-06T11:45:01.544Z,1003.52
2023-01-06T11:50:02.248Z,1003.52
2023-01-06T11:55:02.240Z,1003.48
2023-01-06T12:00:01.298Z,1003.44
2023-01-06T12:05:01.460Z,1003.28
2023-01-06T12:10:01.805Z,1003.29
2023-01-06T12:15:02.867Z,1003.27
2023-01-06T12:20:02.124Z,1003.28
2023-01-06T12:25:01.341Z,1003.27
2023-01-06T12:30:01.513Z,1003.22
2023-01-06T12:35:01.705Z,1003.25
2023-01-06T12:40:02.027Z,1003.27
2023-01-06T12:45:02.108Z,1003.27
2023-01-06T12:50:02.086Z,1003.21
2023-01-06T12:55:02.040Z,1003.17
2023-01-06T13:00:02.080Z,1003.21
2023-01-06T13:05:02.180Z,1003.16
2023-01-06T13:10:01.938Z,1003.24
2023-01-06T13:15:01.859Z,1003.26
2023-01-06T13:20:02.153Z,1003.23
2023-01-06T13:25:02.021Z,1003.27
2023-01-06T13:30:01.953Z,1003.27
2023-01-06T13:35:01.787Z,1003.25
2023-01-06T13:40:02.004Z,1003.21
2023-01-06T13:45:02.060Z,1003.06
2023-01-06T13:50:02.209Z,1003.09
2023-01-06T13:55:01.818Z,1003.1
2023-01-06T14:00:02.066Z,1003.01
2023-01-06T14:05:02.082Z,1003.06
2023-01-06T14:10:01.430Z,1003.02
2023-01-06T14:15:01.360Z,1002.95
2023-01-06T14:20:01.907Z,1002.95
2023-01-06T14:25:02.227Z,1003.02
2023-01-06T14:30:01.336Z,1003.11
2023-01-06T14:35:01.497Z,1003.02
2023-01-06T14:40:01.683Z,1003.04
2023-01-06T14:45:02.145Z,1003.07
2023-01-06T14:50:01.419Z,1003.17
2023-01-06T14:55:01.513Z,1003.23
2023-01-06T15:00:01.734Z,1003.25
2023-01-06T15:05:02.172Z,1003.29
2023-01-06T15:10:02.256Z,1003.34
2023-01-06T15:15:02.223Z,1003.38
2023-01-06T15:20:02.233Z,1003.32
2023-01-06T15:25:01.283Z,1003.36
2023-01-06T15:30:01.493Z,1003.36
2023-01-06T15:35:01.629Z,1003.33
2023-01-06T15:40:01.716Z,1003.33
2023-01-06T15:45:02.093Z,1003.26
2023-01-06T15:50:02.528Z,1003.24
2023-01-06T15:55:02.209Z,1003.33
2023-01-06T16:00:01.297Z,1003.36
2023-01-06T16:05:01.897Z,1003.36
2023-01-06T16:10:02.058Z,1003.34
2023-01-06T16:15:02.146Z,1003.36
2023-01-06T16:20:02.560Z,1003.39
2023-01-06T16:25:02.029Z,1003.42
2023-01-06T16:30:02.092Z,1003.42
2023-01-06T16:35:02.003Z,1003.43
2023-01-06T16:40:02.010Z,1003.44
2023-01-06T16:45:02.027Z,1003.43
2023-01-06T16:50:01.917Z,1003.41
2023-01-06T16:55:01.727Z,1003.41
2023-01-06T17:00:01.415Z,1003.42
2023-01-06T17:05:01.686Z,1003.44
2023-01-06T17:10:01.872Z,1003.38
2023-01-06T17:15:02.041Z,1003.34
2023-01-06T17:20:01.517Z,1003.32
2023-01-06T17:25:01.622Z,1003.3
2023-01-06T17:35:02.359Z,1003.27
2023-01-06T17:50:02.062Z,1003.33
2023-01-06T17:55:02.189Z,1003.37
2023-01-06T18:00:01.292Z,1003.33
2023-01-06T18:05:01.775Z,1003.34
2023-01-06T18:10:02.239Z,1003.46
2023-01-06T18:15:02.141Z,1003.39
2023-01-06T18:20:01.460Z,1003.39
2023-01-06T18:25:01.617Z,1003.4
2023-01-06T18:30:02.150Z,1003.28
2023-01-06T18:35:01.954Z,1003.3
2023-01-06T18:40:01.908Z,1003.41
2023-01-06T18:45:01.989Z,1003.56
2023-01-06T18:50:01.298Z,1003.61
2023-01-06T18:55:01.756Z,1003.5
2023-01-06T19:00:02.243Z,1003.55
2023-01-06T19:05:02.134Z,1003.5
2023-01-06T19:10:02.153Z,1003.49
2023-01-06T19:15:01.410Z,1003.47
2023-01-06T19:20:01.871Z,1003.53
2023-01-06T19:25:01.902Z,1003.54
2023-01-06T19:30:01.824Z,1003.54
2023-01-06T19:35:01.437Z,1003.49
2023-01-06T19:40:01.850Z,1003.46
2023-01-06T19:45:01.659Z,1003.36
2023-01-06T19:50:01.936Z,1003.21
2023-01-06T19:55:01.519Z,1003.17
2023-01-06T20:00:02.039Z,1003.28
2023-01-06T20:05:01.346Z,1003.26
2023-01-06T20:10:01.630Z,1003.19
2023-01-06T20:15:02.235Z,1003.05
2023-01-06T20:20:01.405Z,1003.06
2023-01-06T20:25:01.916Z,1003.15
2023-01-06T20:30:02.294Z,1003.16
2023-01-06T20:35:01.375Z,1003.26
2023-01-06T20:40:01.661Z,1003.37
2023-01-06T20:45:01.927Z,1003.38
2023-01-06T20:50:01.661Z,1003.47
2023-01-06T20:55:01.758Z,1003.47
2023-01-06T21:00:01.879Z,1003.47
2023-01-06T21:10:01.732Z,1003.32
2023-01-06T21:15:01.863Z,1003.32
2023-01-06T21:20:01.381Z,1003.28
2023-01-06T21:25:01.582Z,1003.27
2023-01-06T21:30:01.777Z,1003.19
2023-01-06T21:35:02.081Z,1003.24
2023-01-06T21:40:02.190Z,1003.1
2023-01-06T21:45:02.064Z,1003.14
2023-01-06T21:50:01.308Z,1003.19
2023-01-06T21:55:01.639Z,1003.15
2023-01-06T22:00:01.662Z,1003.21
2023-01-06T22:05:01.984Z,1003.3
2023-01-06T22:10:03.904Z,1003.28
2023-01-06T22:15:02.194Z,1003.2
2023-01-06T22:20:02.268Z,1003.16
2023-01-06T22:25:02.230Z,1003.12
2023-01-06T22:30:02.264Z,1003.12
2023-01-06T22:35:01.284Z,1003.13
2023-01-06T22:40:01.636Z,1003.24
2023-01-06T22:45:01.760Z,1003.25
2023-01-06T22:50:01.950Z,1003.27
2023-01-06T22:55:01.893Z,1003.31
2023-01-06T23:00:01.903Z,1003.28
2023-01-06T23:05:01.581Z,1003.3
2023-01-06T23:10:01.846Z,1003.25
2023-01-06T23:15:01.878Z,1003.27
2023-01-06T23:20:01.913Z,1003.21
2023-01-06T23:25:02.099Z,1003.29
2023-01-06T23:30:02.026Z,1003.2
2023-01-06T23:35:01.315Z,1003.16
2023-01-06T23:40:01.629Z,1003.13
2023-01-06T23:45:01.778Z,1003.01
2023-01-06T23:50:02.066Z,1002.96
2023-01-06T23:55:01.886Z,1002.96
